createdAt,value
2019-03-11T00:02:23.861Z,99860.19
2019-03-11T00:04:51.631Z,99870.39
2019-03-11T00:07:19.416Z,99875.48
2019-03-11T00:09:47.151Z,99886.00
2019-03-11T00:12:14.923Z,99890.76
2019-03-11T00:14:42.673Z,99894.95
2019-03-11T00:17:10.457Z,99892.03
2019-03-11T00:19:38.212Z,99898.07
2019-03-11T00:22:05.984Z,99900.09
2019-03-11T00:24:33.694Z,99907.41
2019-03-11T00:27:01.453Z,99901.44
2019-03-11T00:29:29.201Z,99909.58
2019-03-11T00:31:57.041Z,99908.55
2019-03-11T00:34:24.753Z,99919.17
2019-03-11T00:36:52.567Z,99910.22
2019-03-11T00:39:20.317Z,99905.55
2019-03-11T00:41:48.113Z,99921.77
2019-03-11T00:44:15.867Z,99912.86
2019-03-11T00:46:43.640Z,99904.69
2019-03-11T00:49:11.370Z,99906.47
2019-03-11T00:51:39.139Z,99914.72
2019-03-11T00:54:06.921Z,99918.16
2019-03-11T00:56:34.692Z,99916.92
2019-03-11T00:59:02.411Z,99906.17
2019-03-11T01:01:30.299Z,99901.16
2019-03-11T01:03:58.026Z,99914.54
2019-03-11T01:06:25.814Z,99902.02
2019-03-11T01:08:53.592Z,99911.80
2019-03-11T01:11:21.358Z,99910.47
2019-03-11T01:13:49.171Z,99918.63
2019-03-11T01:16:16.922Z,99918.14
2019-03-11T01:18:44.677Z,99910.95
2019-03-11T01:21:12.463Z,99913.95
2019-03-11T01:23:40.244Z,99919.86
2019-03-11T01:26:07.978Z,99915.92
2019-03-11T01:28:35.734Z,99918.09
2019-03-11T01:31:03.469Z,99911.17
2019-03-11T01:33:31.254Z,99908.11
2019-03-11T01:35:59.006Z,99914.01
2019-03-11T01:38:26.782Z,99918.16
2019-03-11T01:40:54.655Z,99927.36
2019-03-11T01:43:22.421Z,99924.58
2019-03-11T01:45:50.185Z,99924.19
2019-03-11T01:48:17.938Z,99918.66
2019-03-11T01:50:45.757Z,99917.37
2019-03-11T01:53:13.507Z,99911.82
2019-03-11T01:55:41.251Z,99903.66
2019-03-11T01:58:09.052Z,99908.11
2019-03-11T02:00:36.803Z,99910.53
2019-03-11T02:03:04.549Z,99916.97
2019-03-11T02:05:32.308Z,99907.77
2019-03-11T02:08:00.096Z,99908.60
2019-03-11T02:10:28.017Z,99894.61
2019-03-11T02:12:55.796Z,99904.25
2019-03-11T02:15:23.556Z,99909.19
2019-03-11T02:17:51.324Z,99912.36
2019-03-11T02:20:19.195Z,99907.86
2019-03-11T02:22:46.954Z,99909.44
2019-03-11T02:25:14.865Z,99918.09
2019-03-11T02:27:42.637Z,99912.55
2019-03-11T02:30:11.551Z,99916.58
2019-03-11T02:32:39.318Z,99905.71
2019-03-11T02:35:07.410Z,99908.05
2019-03-11T02:37:35.217Z,99912.19
2019-03-11T02:40:03.673Z,99910.91
2019-03-11T02:42:31.487Z,99914.66
2019-03-11T02:44:59.266Z,99915.88
2019-03-11T02:47:27.019Z,99906.39
2019-03-11T02:49:54.826Z,99905.38
2019-03-11T02:52:22.572Z,99906.56
2019-03-11T02:54:50.325Z,99902.32
2019-03-11T02:57:18.063Z,99905.78
2019-03-11T02:59:45.812Z,99906.92
2019-03-11T03:02:24.819Z,99915.52
2019-03-11T03:05:02.030Z,99914.00
2019-03-11T03:07:29.768Z,99928.91
2019-03-11T03:09:57.553Z,99922.39
2019-03-11T03:12:25.303Z,99922.05
2019-03-11T03:14:53.183Z,99931.45
2019-03-11T03:17:22.003Z,99927.52
2019-03-11T03:19:50.042Z,99928.59
2019-03-11T03:22:17.808Z,99932.80
2019-03-11T03:24:45.576Z,99929.78
2019-03-11T03:27:13.310Z,99925.02
2019-03-11T03:29:41.089Z,99932.22
2019-03-11T03:32:08.848Z,99930.63
2019-03-11T03:34:36.713Z,99923.91
2019-03-11T03:37:04.410Z,99919.86
2019-03-11T03:39:32.170Z,99918.52
2019-03-11T03:41:59.915Z,99922.45
2019-03-11T03:44:27.733Z,99928.06
2019-03-11T03:46:55.464Z,99918.95
2019-03-11T03:49:23.284Z,99922.69
2019-03-11T03:51:51.006Z,99916.09
2019-03-11T03:54:18.752Z,99914.18
2019-03-11T03:56:46.527Z,99903.16
2019-03-11T03:59:14.280Z,99899.16
2019-03-11T04:01:42.050Z,99894.87
2019-03-11T04:04:09.796Z,99896.92
2019-03-11T04:06:37.552Z,99897.30
2019-03-11T04:09:05.491Z,99891.22
2019-03-11T04:11:33.257Z,99895.05
2019-03-11T04:14:00.979Z,99897.62
2019-03-11T04:16:28.752Z,99894.33
2019-03-11T04:18:56.866Z,99891.77
2019-03-11T04:21:24.819Z,99887.77
2019-03-11T04:23:52.595Z,99887.13
2019-03-11T04:26:22.258Z,99884.27
2019-03-11T04:28:50.207Z,99876.66
2019-03-11T04:31:17.977Z,99871.31
2019-03-11T04:33:45.721Z,99873.65
2019-03-11T04:36:13.472Z,99868.01
2019-03-11T04:38:41.211Z,99873.68
2019-03-11T04:41:09.015Z,99864.78
2019-03-11T04:43:36.837Z,99852.49
2019-03-11T04:46:04.685Z,99850.16
2019-03-11T04:48:32.487Z,99847.44
2019-03-11T04:51:00.264Z,99844.92
2019-03-11T04:53:27.988Z,99850.60
2019-03-11T04:55:55.757Z,99851.80
2019-03-11T04:58:23.548Z,99842.36
2019-03-11T05:00:51.290Z,99839.28
2019-03-11T05:03:19.061Z,99831.77
2019-03-11T05:05:46.810Z,99844.77
2019-03-11T05:08:14.611Z,99838.64
2019-03-11T05:10:42.333Z,99835.78
2019-03-11T05:13:10.088Z,99828.11
2019-03-11T05:15:37.829Z,99828.16
2019-03-11T05:18:05.623Z,99820.39
2019-03-11T05:20:33.325Z,99825.20
2019-03-11T05:23:01.122Z,99822.88
2019-03-11T05:25:28.937Z,99820.51
2019-03-11T05:27:56.762Z,99817.48
2019-03-11T05:30:24.520Z,99813.77
2019-03-11T05:32:52.380Z,99808.19
2019-03-11T05:35:20.116Z,99818.48
2019-03-11T05:37:47.945Z,99803.56
2019-03-11T05:40:15.717Z,99807.23
2019-03-11T05:42:43.730Z,99809.38
2019-03-11T05:45:12.065Z,99808.63
2019-03-11T05:47:39.873Z,99802.00
2019-03-11T05:50:09.710Z,99804.22
2019-03-11T05:52:37.496Z,99808.23
2019-03-11T05:55:05.523Z,99804.63
2019-03-11T05:57:34.559Z,99806.84
2019-03-11T06:00:02.341Z,99807.78
2019-03-11T06:02:30.123Z,99808.56
2019-03-11T06:04:57.871Z,99810.17
2019-03-11T06:07:25.689Z,99818.02
2019-03-11T06:09:53.455Z,99814.17
2019-03-11T06:12:21.205Z,99817.03
2019-03-11T06:14:49.015Z,99817.30
2019-03-11T06:17:16.807Z,99807.23
2019-03-11T06:19:44.888Z,99819.52
2019-03-11T06:22:18.928Z,99809.23
2019-03-11T06:24:46.709Z,99810.77
2019-03-11T06:27:14.445Z,99809.96
2019-03-11T06:29:42.231Z,99809.94
2019-03-11T06:32:09.983Z,99817.61
2019-03-11T06:34:37.777Z,99818.64
2019-03-11T06:37:05.538Z,99811.02
2019-03-11T06:39:33.699Z,99829.66
2019-03-11T06:42:01.429Z,99818.77
2019-03-11T06:44:29.188Z,99822.39
2019-03-11T06:46:57.727Z,99825.91
2019-03-11T06:49:25.523Z,99821.53
2019-03-11T06:51:53.326Z,99837.50
2019-03-11T06:54:21.166Z,99831.75
2019-03-11T06:56:48.913Z,99837.77
2019-03-11T06:59:16.810Z,99840.34
2019-03-11T07:01:44.577Z,99840.94
2019-03-11T07:04:12.336Z,99845.22
2019-03-11T07:06:40.100Z,99856.17
2019-03-11T07:09:08.539Z,99859.51
2019-03-11T07:11:36.336Z,99854.56
2019-03-11T07:14:04.133Z,99866.15
2019-03-11T07:16:31.948Z,99857.20
2019-03-11T07:18:59.856Z,99859.25
2019-03-11T07:21:27.592Z,99871.34
2019-03-11T07:23:55.371Z,99881.17
2019-03-11T07:26:23.154Z,99870.67
2019-03-11T07:28:50.899Z,99867.45
2019-03-11T07:31:18.676Z,99861.50
2019-03-11T07:33:46.449Z,99852.69
2019-03-11T07:36:14.222Z,99866.22
2019-03-11T07:38:41.997Z,99870.55
2019-03-11T07:41:09.796Z,99877.88
2019-03-11T07:43:37.563Z,99884.35
2019-03-11T07:46:05.390Z,99884.26
2019-03-11T07:48:33.263Z,99888.94
2019-03-11T07:51:01.037Z,99873.47
2019-03-11T07:53:28.783Z,99882.86
2019-03-11T07:55:56.592Z,99888.34
2019-03-11T07:58:24.314Z,99883.19
2019-03-11T08:00:54.219Z,99890.27
2019-03-11T08:03:21.757Z,99879.84
2019-03-11T08:05:49.525Z,99881.02
2019-03-11T08:08:17.293Z,99886.58
2019-03-11T08:10:45.087Z,99886.37
2019-03-11T08:13:12.800Z,99896.81
2019-03-11T08:15:40.600Z,99889.10
2019-03-11T08:18:10.991Z,99901.61
2019-03-11T08:20:38.831Z,99893.50
2019-03-11T08:23:06.616Z,99894.59
2019-03-11T08:25:34.362Z,99897.66
2019-03-11T08:28:02.203Z,99899.19
2019-03-11T08:30:30.049Z,99895.98
2019-03-11T08:32:57.798Z,99895.84
2019-03-11T08:35:25.613Z,99910.84
2019-03-11T08:37:53.758Z,99908.27
2019-03-11T08:40:21.609Z,99910.56
2019-03-11T08:42:49.447Z,99915.09
2019-03-11T08:45:17.902Z,99920.17
2019-03-11T08:47:46.308Z,99913.19
2019-03-11T08:50:14.221Z,99904.14
2019-03-11T08:52:41.986Z,99911.05
2019-03-11T08:55:09.999Z,99914.08
2019-03-11T08:57:40.088Z,99910.39
2019-03-11T09:00:08.514Z,99900.09
2019-03-11T09:02:36.303Z,99906.38
2019-03-11T09:05:05.680Z,99897.59
2019-03-11T09:07:33.442Z,99901.44
2019-03-11T09:10:01.249Z,99895.03
2019-03-11T09:12:29.028Z,99908.13
2019-03-11T09:14:56.782Z,99904.63
2019-03-11T09:17:24.538Z,99898.55
2019-03-11T09:19:52.356Z,99908.97
2019-03-11T09:22:20.295Z,99905.12
2019-03-11T09:24:48.053Z,99910.80
2019-03-11T09:27:16.039Z,99911.81
2019-03-11T09:29:43.809Z,99912.58
2019-03-11T09:32:11.611Z,99921.16
2019-03-11T09:34:39.331Z,99900.27
2019-03-11T09:37:07.123Z,99902.41
2019-03-11T09:39:34.893Z,99898.05
2019-03-11T09:42:02.639Z,99898.16
2019-03-11T09:44:30.386Z,99917.22
2019-03-11T09:46:58.131Z,99902.77
2019-03-11T09:49:25.932Z,99918.86
2019-03-11T09:51:53.677Z,99926.12
2019-03-11T09:54:21.453Z,99936.89
2019-03-11T09:56:49.197Z,99924.89
2019-03-11T09:59:16.977Z,99926.23
2019-03-11T10:01:44.727Z,99926.73
2019-03-11T10:04:12.485Z,99922.35
2019-03-11T10:06:40.254Z,99929.02
2019-03-11T10:09:08.024Z,99933.66
2019-03-11T10:11:35.783Z,99922.63
2019-03-11T10:14:03.564Z,99907.91
2019-03-11T10:16:31.702Z,99903.77
2019-03-11T10:18:59.743Z,99907.02
2019-03-11T10:21:27.515Z,99901.70
2019-03-11T10:23:55.265Z,99901.80
2019-03-11T10:26:23.062Z,99904.13
2019-03-11T10:28:50.855Z,99904.23
2019-03-11T10:31:18.588Z,99908.40
2019-03-11T10:33:46.364Z,99915.09
2019-03-11T10:36:14.135Z,99909.63
2019-03-11T10:38:41.949Z,99908.29
2019-03-11T10:41:09.687Z,99906.68
2019-03-11T10:43:37.452Z,99918.66
2019-03-11T10:46:05.193Z,99919.30
2019-03-11T10:48:37.289Z,99925.48
2019-03-11T10:51:02.760Z,99937.16
2019-03-11T10:53:30.604Z,99932.08
2019-03-11T10:55:59.977Z,99933.27
2019-03-11T10:58:29.202Z,99927.03
2019-03-11T11:00:57.158Z,99929.16
2019-03-11T11:03:24.916Z,99926.31
2019-03-11T11:05:52.704Z,99933.73
2019-03-11T11:08:20.470Z,99932.14
2019-03-11T11:10:48.270Z,99925.91
2019-03-11T11:13:15.996Z,99924.91
2019-03-11T11:15:43.773Z,99935.03
2019-03-11T11:18:11.526Z,99934.39
2019-03-11T11:20:39.310Z,99933.61
2019-03-11T11:23:07.351Z,99946.91
2019-03-11T11:25:35.478Z,99952.17
2019-03-11T11:28:03.472Z,99948.32
2019-03-11T11:30:31.542Z,99948.05
2019-03-11T11:32:59.270Z,99941.94
2019-03-11T11:35:27.078Z,99949.04
2019-03-11T11:37:55.176Z,99962.22
2019-03-11T11:40:23.228Z,99965.64
2019-03-11T11:42:51.140Z,99963.68
2019-03-11T11:45:19.498Z,99963.25
2019-03-11T11:47:47.371Z,99960.25
2019-03-11T11:50:16.867Z,99960.14
2019-03-11T11:52:44.734Z,99954.78
2019-03-11T11:55:13.245Z,99953.38
2019-03-11T11:57:41.017Z,99958.88
2019-03-11T12:00:19.727Z,99952.09
2019-03-11T12:02:47.453Z,99953.92
2019-03-11T12:05:15.488Z,99955.06
2019-03-11T12:07:43.247Z,99953.15
2019-03-11T12:10:13.353Z,99955.48
2019-03-11T12:12:41.167Z,99950.31
2019-03-11T12:15:09.194Z,99962.03
2019-03-11T12:17:37.033Z,99948.21
2019-03-11T12:20:06.241Z,99941.29
2019-03-11T12:22:33.992Z,99958.88
2019-03-11T12:25:01.778Z,99953.11
2019-03-11T12:27:29.547Z,99949.20
2019-03-11T12:29:57.337Z,99956.55
2019-03-11T12:32:25.972Z,99965.84
2019-03-11T12:34:53.736Z,99978.23
2019-03-11T12:37:21.628Z,99984.08
2019-03-11T12:39:49.385Z,99974.34
2019-03-11T12:42:17.141Z,99973.75
2019-03-11T12:44:44.891Z,99978.22
2019-03-11T12:47:13.007Z,99978.83
2019-03-11T12:49:40.742Z,99976.44
2019-03-11T12:52:08.512Z,99979.13
2019-03-11T12:54:36.517Z,99984.11
2019-03-11T12:57:04.249Z,99979.02
2019-03-11T12:59:40.287Z,99987.88
2019-03-11T13:02:02.938Z,100000.37
2019-03-11T13:04:30.714Z,99982.31
2019-03-11T13:06:58.491Z,99996.17
2019-03-11T13:09:26.298Z,99970.95
2019-03-11T13:11:54.068Z,99976.11
2019-03-11T13:14:21.808Z,99989.62
2019-03-11T13:16:49.605Z,99998.00
2019-03-11T13:19:17.343Z,99995.23
2019-03-11T13:21:45.780Z,99997.15
2019-03-11T13:24:13.559Z,99994.95
2019-03-11T13:26:41.321Z,100013.73
2019-03-11T13:29:09.087Z,100009.61
2019-03-11T13:31:36.822Z,100023.70
2019-03-11T13:34:04.611Z,100008.86
2019-03-11T13:36:32.370Z,100006.08
2019-03-11T13:39:00.225Z,100014.75
2019-03-11T13:41:28.128Z,100021.42
2019-03-11T13:43:55.889Z,100026.12
2019-03-11T13:46:23.626Z,100023.58
2019-03-11T13:48:51.403Z,100038.19
2019-03-11T13:51:19.159Z,100030.80
2019-03-11T13:53:46.969Z,100041.36
2019-03-11T13:56:14.718Z,100030.94
2019-03-11T13:58:42.473Z,100040.81
2019-03-11T14:01:10.227Z,100051.38
2019-03-11T14:03:37.990Z,100047.90
2019-03-11T14:06:05.739Z,100064.63
2019-03-11T14:08:33.507Z,100049.53
2019-03-11T14:11:01.267Z,100062.19
2019-03-11T14:13:28.989Z,100053.84
2019-03-11T14:15:57.121Z,100060.59
2019-03-11T14:18:25.011Z,100058.33
2019-03-11T14:20:53.966Z,100061.17
2019-03-11T14:23:21.757Z,100072.34
2019-03-11T14:25:49.543Z,100046.95
2019-03-11T14:28:17.317Z,100062.99
2019-03-11T14:30:45.111Z,100079.94
2019-03-11T14:33:13.146Z,100068.03
2019-03-11T14:35:40.891Z,100076.06
2019-03-11T14:38:08.639Z,100079.28
2019-03-11T14:40:36.417Z,100085.34
2019-03-11T14:43:04.143Z,100071.33
2019-03-11T14:45:31.916Z,100072.85
2019-03-11T14:47:59.795Z,100088.24
2019-03-11T14:50:27.572Z,100083.91
2019-03-11T14:52:55.422Z,100088.89
2019-03-11T14:55:23.158Z,100081.19
2019-03-11T14:57:50.952Z,100095.37
2019-03-11T15:00:19.042Z,100079.60
2019-03-11T15:02:47.107Z,100078.75
2019-03-11T15:05:16.056Z,100076.05
2019-03-11T15:07:43.903Z,100081.86
2019-03-11T15:10:11.804Z,100082.77
2019-03-11T15:12:39.582Z,100095.92
2019-03-11T15:15:11.274Z,100106.20
2019-03-11T15:17:39.032Z,100108.25
2019-03-11T15:20:07.039Z,100104.86
2019-03-11T15:22:34.810Z,100109.67
2019-03-11T15:25:02.798Z,100109.44
2019-03-11T15:27:30.764Z,100109.08
2019-03-11T15:29:58.552Z,100115.08
2019-03-11T15:32:26.430Z,100116.22
2019-03-11T15:34:54.194Z,100110.87
2019-03-11T15:37:22.633Z,100110.88
2019-03-11T15:39:50.501Z,100111.23
2019-03-11T15:42:18.288Z,100132.39
2019-03-11T15:44:46.057Z,100125.34
2019-03-11T15:47:13.814Z,100123.44
2019-03-11T15:49:41.573Z,100118.33
2019-03-11T15:52:09.328Z,100128.94
2019-03-11T15:54:37.107Z,100119.69
2019-03-11T15:57:04.856Z,100115.51
2019-03-11T15:59:32.680Z,100119.34
2019-03-11T16:02:00.482Z,100123.22
2019-03-11T16:04:28.254Z,100113.80
2019-03-11T16:06:56.007Z,100126.58
2019-03-11T16:09:23.832Z,100129.44
2019-03-11T16:11:51.596Z,100138.24
2019-03-11T16:14:19.387Z,100126.34
2019-03-11T16:16:47.172Z,100142.09
2019-03-11T16:19:14.897Z,100147.63
2019-03-11T16:21:42.648Z,100141.91
2019-03-11T16:24:10.446Z,100147.50
2019-03-11T16:26:38.171Z,100149.01
2019-03-11T16:29:05.954Z,100163.03
2019-03-11T16:31:33.723Z,100151.82
2019-03-11T16:34:01.507Z,100153.29
2019-03-11T16:36:29.270Z,100164.91
2019-03-11T16:38:57.029Z,100172.73
2019-03-11T16:41:24.815Z,100171.47
2019-03-11T16:43:52.576Z,100175.79
2019-03-11T16:46:20.333Z,100169.86
2019-03-11T16:48:48.112Z,100176.00
2019-03-11T16:51:15.887Z,100178.24
2019-03-11T16:53:43.715Z,100177.24
2019-03-11T16:56:11.459Z,100175.96
2019-03-11T16:58:39.270Z,100170.05
2019-03-11T17:01:09.258Z,100187.88
2019-03-11T17:03:37.066Z,100188.00
2019-03-11T17:06:04.859Z,100180.23
2019-03-11T17:08:32.638Z,100183.56
2019-03-11T17:11:00.450Z,100189.16
2019-03-11T17:13:28.219Z,100188.14
2019-03-11T17:15:56.006Z,100192.15
2019-03-11T17:18:24.046Z,100195.39
2019-03-11T17:20:51.822Z,100197.50
2019-03-11T17:23:19.618Z,100198.00
2019-03-11T17:25:47.449Z,100200.17
2019-03-11T17:28:15.308Z,100203.56
2019-03-11T17:30:43.176Z,100195.52
2019-03-11T17:33:10.938Z,100203.11
2019-03-11T17:35:38.696Z,100210.98
2019-03-11T17:38:06.453Z,100206.67
2019-03-11T17:40:34.263Z,100226.82
2019-03-11T17:43:02.096Z,100234.81
2019-03-11T17:45:29.967Z,100241.02
2019-03-11T17:47:57.733Z,100240.21
2019-03-11T17:50:25.517Z,100237.88
2019-03-11T17:52:53.303Z,100231.64
2019-03-11T17:55:21.181Z,100252.59
2019-03-11T17:57:49.854Z,100258.30
2019-03-11T18:00:21.182Z,100253.17
2019-03-11T18:02:48.906Z,100254.02
2019-03-11T18:05:16.795Z,100243.36
2019-03-11T18:07:44.591Z,100243.30
2019-03-11T18:10:12.486Z,100253.55
2019-03-11T18:12:40.260Z,100252.80
2019-03-11T18:15:12.686Z,100252.17
2019-03-11T18:17:38.089Z,100258.24
2019-03-11T18:20:06.325Z,100261.16
2019-03-11T18:22:34.199Z,100256.34
2019-03-11T18:25:01.968Z,100260.54
2019-03-11T18:27:29.793Z,100255.77
2019-03-11T18:29:57.645Z,100258.89
2019-03-11T18:32:25.487Z,100260.61
2019-03-11T18:34:53.243Z,100263.48
2019-03-11T18:37:21.046Z,100258.14
2019-03-11T18:39:48.835Z,100260.58
2019-03-11T18:42:24.937Z,100266.50
2019-03-11T18:44:46.385Z,100260.85
2019-03-11T18:47:14.261Z,100266.84
2019-03-11T18:49:42.129Z,100264.90
2019-03-11T18:52:10.008Z,100269.83
2019-03-11T18:54:37.759Z,100273.45
2019-03-11T18:57:05.567Z,100277.08
2019-03-11T18:59:33.443Z,100273.45
2019-03-11T19:02:01.277Z,100282.23
2019-03-11T19:04:29.018Z,100289.07
2019-03-11T19:06:56.836Z,100281.77
2019-03-11T19:09:24.945Z,100293.66
2019-03-11T19:11:52.758Z,100294.50
2019-03-11T19:14:20.681Z,100294.08
2019-03-11T19:16:48.577Z,100289.30
2019-03-11T19:19:17.152Z,100287.63
2019-03-11T19:21:45.003Z,100294.37
2019-03-11T19:24:13.208Z,100292.51
2019-03-11T19:26:41.007Z,100302.81
2019-03-11T19:29:08.820Z,100300.26
2019-03-11T19:31:36.674Z,100304.00
2019-03-11T19:34:04.493Z,100304.81
2019-03-11T19:36:33.548Z,100304.80
2019-03-11T19:39:01.874Z,100313.16
2019-03-11T19:41:29.789Z,100328.64
2019-03-11T19:43:57.677Z,100327.86
2019-03-11T19:46:25.491Z,100337.80
2019-03-11T19:48:53.391Z,100341.22
2019-03-11T19:51:21.292Z,100345.45
2019-03-11T19:53:49.180Z,100356.08
2019-03-11T19:56:17.072Z,100363.22
2019-03-11T19:58:45.038Z,100364.99
2019-03-11T20:01:12.883Z,100365.27
2019-03-11T20:03:40.741Z,100377.23
2019-03-11T20:06:08.654Z,100379.03
2019-03-11T20:08:36.488Z,100386.08
2019-03-11T20:11:04.290Z,100388.28
2019-03-11T20:13:32.254Z,100384.77
2019-03-11T20:16:00.333Z,100398.73
2019-03-11T20:18:28.153Z,100395.44
2019-03-11T20:20:55.977Z,100404.25
2019-03-11T20:23:23.946Z,100419.69
2019-03-11T20:25:51.827Z,100414.04
2019-03-11T20:28:19.760Z,100411.80
2019-03-11T20:30:47.716Z,100416.75
2019-03-11T20:33:15.597Z,100415.59
2019-03-11T20:35:43.490Z,100418.61
2019-03-11T20:38:11.405Z,100422.77
2019-03-11T20:40:40.153Z,100428.10
2019-03-11T20:43:08.083Z,100432.28
2019-03-11T20:45:36.005Z,100434.23
2019-03-11T20:48:03.752Z,100443.77
2019-03-11T20:50:41.560Z,100443.95
2019-03-11T20:53:01.203Z,100450.98
2019-03-11T20:55:29.064Z,100456.92
2019-03-11T20:57:56.888Z,100466.07
2019-03-11T21:00:24.756Z,100468.32
2019-03-11T21:02:52.778Z,100474.63
2019-03-11T21:05:24.168Z,100471.52
2019-03-11T21:07:51.910Z,100478.69
2019-03-11T21:10:19.713Z,100475.34
2019-03-11T21:12:47.593Z,100482.20
2019-03-11T21:15:15.433Z,100486.41
2019-03-11T21:17:43.237Z,100488.16
2019-03-11T21:20:13.712Z,100487.67
2019-03-11T21:22:41.770Z,100494.64
2019-03-11T21:25:12.118Z,100491.59
2019-03-11T21:27:39.967Z,100504.34
2019-03-11T21:30:11.374Z,100504.78
2019-03-11T21:32:39.182Z,100511.81
2019-03-11T21:35:07.664Z,100518.84
2019-03-11T21:37:35.616Z,100522.06
2019-03-11T21:40:03.950Z,100521.54
2019-03-11T21:42:31.748Z,100526.69
2019-03-11T21:44:59.557Z,100536.27
2019-03-11T21:47:27.353Z,100547.69
2019-03-11T21:49:55.274Z,100556.55
2019-03-11T21:52:23.070Z,100558.84
2019-03-11T21:54:51.011Z,100555.75
2019-03-11T21:57:18.866Z,100561.47
2019-03-11T21:59:46.893Z,100563.36
2019-03-11T22:02:14.857Z,100567.64
2019-03-11T22:04:42.600Z,100574.13
2019-03-11T22:07:10.402Z,100583.43
2019-03-11T22:09:38.206Z,100594.77
2019-03-11T22:12:05.975Z,100600.30
2019-03-11T22:14:33.760Z,100604.48
2019-03-11T22:17:01.548Z,100608.53
2019-03-11T22:19:29.293Z,100609.91
2019-03-11T22:21:57.067Z,100619.22
2019-03-11T22:24:24.825Z,100621.58
2019-03-11T22:26:52.611Z,100626.91
2019-03-11T22:29:20.393Z,100620.73
2019-03-11T22:31:48.259Z,100633.94
2019-03-11T22:34:16.050Z,100636.43
2019-03-11T22:36:43.938Z,100643.28
2019-03-11T22:39:11.683Z,100647.25
2019-03-11T22:41:39.548Z,100651.18
2019-03-11T22:44:07.265Z,100649.66
2019-03-11T22:46:35.055Z,100651.66
2019-03-11T22:49:02.783Z,100660.30
2019-03-11T22:51:30.546Z,100670.18
2019-03-11T22:53:58.333Z,100670.66
2019-03-11T22:56:26.106Z,100684.47
2019-03-11T22:58:53.860Z,100689.19
2019-03-11T23:01:21.835Z,100702.10
2019-03-11T23:03:50.829Z,100706.46
2019-03-11T23:06:18.807Z,100709.80
2019-03-11T23:08:46.569Z,100720.70
2019-03-11T23:11:14.325Z,100723.38
2019-03-11T23:13:42.115Z,100725.06
2019-03-11T23:16:09.861Z,100734.20
2019-03-11T23:18:37.680Z,100741.41
2019-03-11T23:21:05.434Z,100743.95
2019-03-11T23:23:33.231Z,100751.61
2019-03-11T23:26:01.003Z,100751.30
2019-03-11T23:28:28.799Z,100757.66
2019-03-11T23:30:56.540Z,100764.50
2019-03-11T23:33:24.320Z,100764.16
2019-03-11T23:35:52.052Z,100770.66
2019-03-11T23:38:19.844Z,100767.64
2019-03-11T23:40:47.610Z,100772.00
2019-03-11T23:43:15.390Z,100778.84
2019-03-11T23:45:43.143Z,100782.01
2019-03-11T23:48:10.910Z,100783.52
2019-03-11T23:50:38.650Z,100785.14
2019-03-11T23:53:06.440Z,100786.58
2019-03-11T23:55:34.198Z,100787.95
2019-03-11T23:58:01.960Z,100786.98
